createdAt,value
2022-10-13T00:02:02.233Z,6.80
2022-10-13T00:04:36.209Z,7.20
2022-10-13T00:07:14.548Z,8.63
2022-10-13T00:09:45.045Z,7.65
2022-10-13T00:12:23.985Z,6.95
2022-10-13T00:14:57.140Z,8.93
2022-10-13T00:17:31.474Z,6.72
2022-10-13T00:20:07.339Z,6.95
2022-10-13T00:22:46.271Z,8.85
2022-10-13T00:25:24.372Z,9.55
2022-10-13T00:27:54.821Z,8.23
2022-10-13T00:30:38.682Z,7.25
2022-10-13T00:33:16.254Z,7.32
2022-10-13T00:35:55.691Z,8.27
2022-10-13T00:38:33.555Z,8.50
2022-10-13T00:41:09.161Z,7.63
2022-10-13T00:44:02.269Z,8.43
2022-10-13T00:46:35.797Z,8.23
2022-10-13T00:51:54.078Z,9.00
2022-10-13T00:54:27.220Z,9.57
2022-10-13T00:57:03.946Z,7.82
2022-10-13T00:59:38.786Z,8.93
2022-10-13T01:02:11.823Z,7.72
2022-10-13T01:04:46.482Z,7.45
2022-10-13T01:07:22.233Z,7.38
2022-10-13T01:10:02.809Z,7.95
2022-10-13T01:12:57.980Z,7.45
2022-10-13T01:15:55.203Z,9.02
2022-10-13T01:18:42.862Z,7.63
2022-10-13T01:21:31.296Z,8.07
2022-10-13T01:24:08.881Z,8.25
2022-10-13T01:26:56.442Z,7.65
2022-10-13T01:29:41.989Z,8.48
2022-10-13T01:32:21.602Z,8.20
2022-10-13T01:35:14.159Z,8.48
2022-10-13T01:38:02.179Z,7.72
2022-10-13T01:40:45.351Z,7.70
2022-10-13T01:43:20.965Z,8.93
2022-10-13T01:46:38.185Z,7.75
2022-10-13T01:49:17.234Z,8.13
2022-10-13T01:51:57.261Z,8.52
2022-10-13T01:54:43.040Z,8.00
2022-10-13T01:58:00.302Z,7.85
2022-10-13T02:00:38.324Z,7.55
2022-10-13T02:03:23.688Z,9.35
2022-10-13T02:06:08.057Z,9.10
2022-10-13T02:09:12.696Z,8.30
2022-10-13T02:11:51.890Z,8.20
2022-10-13T02:14:30.473Z,7.90
2022-10-13T02:17:07.568Z,6.80
2022-10-13T02:19:48.862Z,7.35
2022-10-13T02:22:31.612Z,7.55
2022-10-13T02:25:10.668Z,8.10
2022-10-13T02:27:40.685Z,7.88
2022-10-13T02:30:23.201Z,7.85
2022-10-13T02:33:01.323Z,8.00
2022-10-13T02:35:35.309Z,8.27
2022-10-13T02:38:12.030Z,8.68
2022-10-13T02:40:46.859Z,7.85
2022-10-13T02:43:17.687Z,8.50
2022-10-13T02:45:55.080Z,8.05
2022-10-13T02:48:31.364Z,8.57
2022-10-13T02:51:09.315Z,8.35
2022-10-13T02:53:43.036Z,7.97
2022-10-13T02:56:15.442Z,9.02
2022-10-13T02:58:50.810Z,7.50
2022-10-13T03:01:23.860Z,9.15
2022-10-13T03:03:56.587Z,8.80
2022-10-13T03:06:34.347Z,8.70
2022-10-13T03:09:10.572Z,8.63
2022-10-13T03:11:44.605Z,7.90
2022-10-13T03:14:15.275Z,8.83
2022-10-13T03:16:46.144Z,7.32
2022-10-13T03:19:23.249Z,7.60
2022-10-13T03:22:02.883Z,8.05
2022-10-13T03:24:40.601Z,7.78
2022-10-13T03:27:21.504Z,8.05
2022-10-13T03:32:34.560Z,8.30
2022-10-13T03:35:11.047Z,7.53
2022-10-13T03:37:44.683Z,8.52
2022-10-13T03:40:20.816Z,7.72
2022-10-13T03:42:51.103Z,7.30
2022-10-13T03:45:27.595Z,8.10
2022-10-13T03:47:59.412Z,8.27
2022-10-13T03:50:34.346Z,7.05
2022-10-13T03:53:11.338Z,8.00
2022-10-13T03:55:52.001Z,7.60
2022-10-13T03:58:28.426Z,8.30
2022-10-13T04:01:09.441Z,7.57
2022-10-13T04:03:40.397Z,7.30
2022-10-13T04:06:15.844Z,8.40
2022-10-13T04:08:45.700Z,7.57
2022-10-13T04:11:16.748Z,8.90
2022-10-13T04:13:59.511Z,7.13
2022-10-13T04:16:39.660Z,7.90
2022-10-13T04:19:16.828Z,7.88
2022-10-13T04:21:53.719Z,8.77
2022-10-13T04:24:24.175Z,7.20
2022-10-13T04:26:54.530Z,8.30
2022-10-13T04:29:28.200Z,7.20
2022-10-13T04:32:16.085Z,9.23
2022-10-13T04:34:46.930Z,8.60
2022-10-13T04:37:16.602Z,9.57
2022-10-13T04:39:50.098Z,6.97
2022-10-13T04:42:23.435Z,7.38
2022-10-13T04:45:07.645Z,9.60
2022-10-13T04:47:46.231Z,8.70
2022-10-13T04:50:18.641Z,8.18
2022-10-13T04:52:59.440Z,7.38
2022-10-13T04:55:31.684Z,8.65
2022-10-13T04:58:10.480Z,7.85
2022-10-13T05:00:48.278Z,8.32
2022-10-13T05:03:23.858Z,8.13
2022-10-13T05:05:59.496Z,8.63
2022-10-13T05:08:34.084Z,8.50
2022-10-13T05:11:03.931Z,7.10
2022-10-13T05:13:41.859Z,8.43
2022-10-13T05:16:20.954Z,6.93
2022-10-13T05:19:00.374Z,9.27
2022-10-13T05:21:36.143Z,8.27
2022-10-13T05:24:31.314Z,7.30
2022-10-13T05:27:04.650Z,7.88
2022-10-13T05:29:36.914Z,7.80
2022-10-13T05:32:11.816Z,9.35
2022-10-13T05:34:48.426Z,8.50
2022-10-13T05:37:25.325Z,9.02
2022-10-13T05:39:58.520Z,8.48
2022-10-13T05:42:38.227Z,7.03
2022-10-13T05:45:11.360Z,7.00
2022-10-13T05:47:47.871Z,8.43
2022-10-13T05:50:23.779Z,8.45
2022-10-13T05:53:01.999Z,7.88
2022-10-13T05:55:43.887Z,7.15
2022-10-13T05:58:20.320Z,8.48
2022-10-13T06:00:52.000Z,8.93
2022-10-13T06:03:29.995Z,8.32
2022-10-13T06:06:09.545Z,7.88
2022-10-13T06:08:42.896Z,7.38
2022-10-13T06:11:16.559Z,7.93
2022-10-13T06:13:50.218Z,8.13
2022-10-13T06:16:30.360Z,10.63
2022-10-13T06:19:11.071Z,7.32
2022-10-13T06:21:48.512Z,7.78
2022-10-13T06:24:22.038Z,7.43
2022-10-13T06:29:36.756Z,9.80
2022-10-13T06:32:18.041Z,9.23
2022-10-13T06:34:56.554Z,6.93
2022-10-13T06:37:30.621Z,8.20
2022-10-13T06:40:07.491Z,8.23
2022-10-13T06:42:43.053Z,8.13
2022-10-13T06:45:17.874Z,7.75
2022-10-13T06:47:49.531Z,7.00
2022-10-13T06:50:26.790Z,8.32
2022-10-13T06:52:59.808Z,7.85
2022-10-13T06:55:35.947Z,6.13
2022-10-13T06:58:12.085Z,8.02
2022-10-13T07:00:49.275Z,8.10
2022-10-13T07:03:29.522Z,8.52
2022-10-13T07:06:02.835Z,7.75
2022-10-13T07:08:34.490Z,8.98
2022-10-13T07:11:16.419Z,8.10
2022-10-13T07:13:55.451Z,7.68
2022-10-13T07:16:30.984Z,7.97
2022-10-13T07:19:03.641Z,7.80
2022-10-13T07:21:32.443Z,9.07
2022-10-13T07:24:03.022Z,10.32
2022-10-13T07:26:36.819Z,8.30
2022-10-13T07:29:08.391Z,7.80
2022-10-13T07:31:39.342Z,7.43
2022-10-13T07:34:13.882Z,7.53
2022-10-13T07:36:44.858Z,8.65
2022-10-13T07:39:20.030Z,8.77
2022-10-13T07:44:25.894Z,8.45
2022-10-13T07:47:05.724Z,8.15
2022-10-13T07:49:36.562Z,9.35
2022-10-13T07:52:13.577Z,9.45
2022-10-13T07:54:52.637Z,8.82
2022-10-13T07:57:32.015Z,8.02
2022-10-13T08:00:13.589Z,8.38
2022-10-13T08:02:54.295Z,9.85
2022-10-13T08:05:25.051Z,8.65
2022-10-13T08:07:58.745Z,9.13
2022-10-13T08:10:29.790Z,9.43
2022-10-13T08:13:04.946Z,10.32
2022-10-13T08:15:38.264Z,9.20
2022-10-13T08:18:15.831Z,7.82
2022-10-13T08:20:49.179Z,8.85
2022-10-13T08:23:27.395Z,8.43
2022-10-13T08:26:00.455Z,10.38
2022-10-13T08:28:35.390Z,10.15
2022-10-13T08:31:04.832Z,9.77
2022-10-13T08:33:47.464Z,10.35
2022-10-13T08:36:31.220Z,9.20
2022-10-13T08:39:01.881Z,9.23
2022-10-13T08:41:44.924Z,9.57
2022-10-13T08:47:30.891Z,13.05
2022-10-13T08:50:11.923Z,12.38
2022-10-13T08:53:05.449Z,11.40
2022-10-13T08:56:04.661Z,11.95
2022-10-13T08:58:43.898Z,10.38
2022-10-13T09:01:23.983Z,10.13
2022-10-13T09:03:57.670Z,11.05
2022-10-13T09:06:33.698Z,12.00
2022-10-13T09:09:06.678Z,9.90
2022-10-13T09:11:40.359Z,11.35
2022-10-13T09:16:47.014Z,9.93
2022-10-13T09:19:22.565Z,11.40
2022-10-13T09:21:57.649Z,11.18
2022-10-13T09:24:27.388Z,10.93
2022-10-13T09:27:11.875Z,11.32
2022-10-13T09:29:44.393Z,11.63
2022-10-13T09:32:29.761Z,11.52
2022-10-13T09:35:26.934Z,13.27
2022-10-13T09:38:08.980Z,10.98
2022-10-13T09:40:59.697Z,11.32
2022-10-13T09:43:33.347Z,11.88
2022-10-13T09:46:04.780Z,10.18
2022-10-13T09:48:42.558Z,9.32
2022-10-13T09:51:54.482Z,11.18
2022-10-13T09:54:30.951Z,12.48
2022-10-13T09:57:08.147Z,10.52
2022-10-13T09:59:48.203Z,9.48
2022-10-13T10:02:37.592Z,11.40
2022-10-13T10:05:37.491Z,10.02
2022-10-13T10:08:17.688Z,9.45
2022-10-13T10:10:55.735Z,9.70
2022-10-13T10:13:31.493Z,11.13
2022-10-13T10:16:12.088Z,13.77
2022-10-13T10:18:58.774Z,10.10
2022-10-13T10:21:50.943Z,10.65
2022-10-13T10:24:36.267Z,9.85
2022-10-13T10:29:55.024Z,11.73
2022-10-13T10:32:40.354Z,11.45
2022-10-13T10:35:27.677Z,10.85
2022-10-13T10:38:07.956Z,10.30
2022-10-13T10:41:07.692Z,11.63
2022-10-13T10:44:01.753Z,12.93
2022-10-13T10:49:10.849Z,11.15
2022-10-13T10:51:45.776Z,9.80
2022-10-13T10:54:51.703Z,9.80
2022-10-13T10:57:25.818Z,11.70
2022-10-13T11:00:08.042Z,9.30
2022-10-13T11:03:04.135Z,8.88
2022-10-13T11:05:58.573Z,10.18
2022-10-13T11:08:51.013Z,11.82
2022-10-13T11:11:33.431Z,12.65
2022-10-13T11:14:10.946Z,11.30
2022-10-13T11:16:58.766Z,10.25
2022-10-13T11:19:32.958Z,10.13
2022-10-13T11:22:03.588Z,9.68
2022-10-13T11:24:44.050Z,10.77
2022-10-13T11:27:38.472Z,9.55
2022-10-13T11:30:42.544Z,9.68
2022-10-13T11:33:37.029Z,12.32
2022-10-13T11:36:33.127Z,10.27
2022-10-13T11:39:40.345Z,10.05
2022-10-13T11:42:47.174Z,10.70
2022-10-13T11:45:46.011Z,10.70
2022-10-13T11:48:43.540Z,10.93
2022-10-13T11:51:20.966Z,11.48
2022-10-13T11:54:00.404Z,12.75
2022-10-13T11:56:36.331Z,11.63
2022-10-13T11:59:25.283Z,10.77
2022-10-13T12:02:06.551Z,11.30
2022-10-13T12:04:41.577Z,10.43
2022-10-13T12:07:22.360Z,9.48
2022-10-13T12:09:56.297Z,11.27
2022-10-13T12:12:29.954Z,9.40
2022-10-13T12:15:07.188Z,12.07
2022-10-13T12:17:41.890Z,11.07
2022-10-13T12:20:23.213Z,12.38
2022-10-13T12:22:59.282Z,10.13
2022-10-13T12:25:34.382Z,12.13
2022-10-13T12:28:21.852Z,11.07
2022-10-13T12:30:55.978Z,11.43
2022-10-13T12:33:34.389Z,11.63
2022-10-13T12:36:18.902Z,10.10
2022-10-13T12:38:55.924Z,10.98
2022-10-13T12:41:29.919Z,16.98
2022-10-13T12:44:04.027Z,9.85
2022-10-13T12:46:45.578Z,9.90
2022-10-13T12:49:17.912Z,12.10
2022-10-13T12:51:51.380Z,9.90
2022-10-13T12:54:33.867Z,10.48
2022-10-13T12:57:18.219Z,9.70
2022-10-13T12:59:51.395Z,11.48
2022-10-13T13:02:26.350Z,9.70
2022-10-13T13:04:59.873Z,10.38
2022-10-13T13:10:16.685Z,11.43
2022-10-13T13:12:53.406Z,9.25
2022-10-13T13:15:37.228Z,10.45
2022-10-13T13:18:29.950Z,10.45
2022-10-13T13:21:04.552Z,10.63
2022-10-13T13:23:44.019Z,9.70
2022-10-13T13:26:19.893Z,11.02
2022-10-13T13:28:56.143Z,11.60
2022-10-13T13:31:29.758Z,10.40
2022-10-13T13:34:03.298Z,11.38
2022-10-13T13:36:47.946Z,13.48
2022-10-13T13:39:27.030Z,10.18
2022-10-13T13:42:06.369Z,10.60
2022-10-13T13:44:47.107Z,10.73
2022-10-13T13:47:27.019Z,9.38
2022-10-13T13:49:58.262Z,10.75
2022-10-13T13:52:34.294Z,12.60
2022-10-13T13:55:07.551Z,9.80
2022-10-13T13:57:40.296Z,10.27
2022-10-13T14:00:17.416Z,10.77
2022-10-13T14:02:59.407Z,10.93
2022-10-13T14:05:44.099Z,9.20
2022-10-13T14:08:29.833Z,9.63
2022-10-13T14:11:10.962Z,10.52
2022-10-13T14:13:50.037Z,10.63
2022-10-13T14:16:29.703Z,14.13
2022-10-13T14:19:03.647Z,12.60
2022-10-13T14:21:40.170Z,10.77
2022-10-13T14:24:25.083Z,11.27
2022-10-13T14:27:07.716Z,9.25
2022-10-13T14:29:50.128Z,12.27
2022-10-13T14:32:25.050Z,13.00
2022-10-13T14:37:33.274Z,9.75
2022-10-13T14:40:13.257Z,11.53
2022-10-13T14:42:49.295Z,10.52
2022-10-13T14:45:22.941Z,9.75
2022-10-13T14:50:30.704Z,12.38
2022-10-13T14:53:01.578Z,9.68
2022-10-13T14:55:41.197Z,11.23
2022-10-13T14:58:17.323Z,10.85
2022-10-13T15:00:56.157Z,11.65
2022-10-13T15:03:32.915Z,9.82
2022-10-13T15:06:04.554Z,10.75
2022-10-13T15:08:33.254Z,18.65
2022-10-13T15:11:05.010Z,15.88
2022-10-13T15:13:32.884Z,12.18
2022-10-13T15:16:10.105Z,13.75
2022-10-13T15:18:42.723Z,10.27
2022-10-13T15:21:14.857Z,13.35
2022-10-13T15:23:46.336Z,11.25
2022-10-13T15:26:20.789Z,11.65
2022-10-13T15:28:53.708Z,12.38
2022-10-13T15:31:31.241Z,12.70
2022-10-13T15:34:01.369Z,12.30
2022-10-13T15:36:33.058Z,11.00
2022-10-13T15:39:06.481Z,10.95
2022-10-13T15:41:42.497Z,10.85
2022-10-13T15:44:14.356Z,11.85
2022-10-13T15:47:06.634Z,13.50
2022-10-13T15:49:39.216Z,12.43
2022-10-13T15:52:10.244Z,10.38
2022-10-13T15:54:45.517Z,10.35
2022-10-13T15:57:15.900Z,11.10
2022-10-13T15:59:43.847Z,12.73
2022-10-13T16:02:14.794Z,13.10
2022-10-13T16:04:48.785Z,16.90
2022-10-13T16:07:24.529Z,16.30
2022-10-13T16:09:59.456Z,13.52
2022-10-13T16:12:30.142Z,18.08
2022-10-13T16:14:58.162Z,14.45
2022-10-13T16:17:30.435Z,15.20
2022-10-13T16:20:06.100Z,15.57
2022-10-13T16:22:34.015Z,15.73
2022-10-13T16:25:04.622Z,13.43
2022-10-13T16:27:33.048Z,12.73
2022-10-13T16:30:04.222Z,12.00
2022-10-13T16:32:37.928Z,11.38
2022-10-13T16:35:06.595Z,12.73
2022-10-13T16:37:34.527Z,12.82
2022-10-13T16:40:02.358Z,9.90
2022-10-13T16:42:30.335Z,10.35
2022-10-13T16:44:58.234Z,11.65
2022-10-13T16:47:27.936Z,12.95
2022-10-13T16:49:55.597Z,13.35
2022-10-13T16:52:27.106Z,12.73
2022-10-13T16:55:02.170Z,12.82
2022-10-13T16:57:34.801Z,10.63
2022-10-13T17:00:02.668Z,12.67
2022-10-13T17:02:38.754Z,10.15
2022-10-13T17:05:06.426Z,10.75
2022-10-13T17:07:37.193Z,9.75
2022-10-13T17:10:10.959Z,10.70
2022-10-13T17:12:41.065Z,10.07
2022-10-13T17:15:12.583Z,11.75
2022-10-13T17:17:41.105Z,11.02
2022-10-13T17:20:13.425Z,10.23
2022-10-13T17:22:43.562Z,10.50
2022-10-13T17:25:14.572Z,10.50
2022-10-13T17:27:43.105Z,11.60
2022-10-13T17:30:11.474Z,9.98
2022-10-13T17:32:39.509Z,9.18
2022-10-13T17:35:14.481Z,9.98
2022-10-13T17:37:45.016Z,10.10
2022-10-13T17:40:13.173Z,10.02
2022-10-13T17:42:43.873Z,9.27
2022-10-13T17:45:17.160Z,9.35
2022-10-13T17:47:51.699Z,11.50
2022-10-13T17:50:27.531Z,10.25
2022-10-13T17:52:55.347Z,10.00
2022-10-13T17:55:25.408Z,11.10
2022-10-13T17:57:53.392Z,11.88
2022-10-13T18:00:21.154Z,12.40
2022-10-13T18:02:56.866Z,9.68
2022-10-13T18:05:25.107Z,9.30
2022-10-13T18:07:57.440Z,10.35
2022-10-13T18:10:31.361Z,10.75
2022-10-13T18:13:08.243Z,9.95
2022-10-13T18:15:42.235Z,10.63
2022-10-13T18:18:13.016Z,9.30
2022-10-13T18:20:43.210Z,9.68
2022-10-13T18:23:11.609Z,10.27
2022-10-13T18:25:40.554Z,10.60
2022-10-13T18:28:08.491Z,9.88
2022-10-13T18:30:39.072Z,9.65
2022-10-13T18:33:09.441Z,10.50
2022-10-13T18:35:39.437Z,8.88
2022-10-13T18:38:07.108Z,10.68
2022-10-13T18:40:39.024Z,10.93
2022-10-13T18:43:12.637Z,10.35
2022-10-13T18:45:44.914Z,10.53
2022-10-13T18:48:12.694Z,9.60
2022-10-13T18:50:40.478Z,10.05
2022-10-13T18:53:13.105Z,9.57
2022-10-13T18:55:43.021Z,9.67
2022-10-13T18:58:14.470Z,9.52
2022-10-13T19:00:47.923Z,10.32
2022-10-13T19:03:16.830Z,9.65
2022-10-13T19:05:52.169Z,10.57
2022-10-13T19:08:23.569Z,9.95
2022-10-13T19:10:57.967Z,10.35
2022-10-13T19:13:28.109Z,10.43
2022-10-13T19:16:01.860Z,10.52
2022-10-13T19:18:29.910Z,9.50
2022-10-13T19:21:01.447Z,9.07
2022-10-13T19:23:32.456Z,9.90
2022-10-13T19:26:14.772Z,9.98
2022-10-13T19:28:43.766Z,11.88
2022-10-13T19:31:18.895Z,9.90
2022-10-13T19:33:47.506Z,10.75
2022-10-13T19:36:37.590Z,9.02
2022-10-13T19:39:11.564Z,9.05
2022-10-13T19:41:42.120Z,9.52
2022-10-13T19:44:09.951Z,11.80
2022-10-13T19:46:44.001Z,9.95
2022-10-13T19:49:13.250Z,11.57
2022-10-13T19:54:21.712Z,10.60
2022-10-13T19:56:50.427Z,9.90
2022-10-13T19:59:19.445Z,11.07
2022-10-13T20:01:50.337Z,9.68
2022-10-13T20:04:20.607Z,11.02
2022-10-13T20:06:53.395Z,9.77
2022-10-13T20:09:24.368Z,10.48
2022-10-13T20:11:52.135Z,11.80
2022-10-13T20:14:20.622Z,9.80
2022-10-13T20:16:48.723Z,10.20
2022-10-13T20:19:20.477Z,10.73
2022-10-13T20:21:54.218Z,9.55
2022-10-13T20:24:25.248Z,9.35
2022-10-13T20:26:54.632Z,9.57
2022-10-13T20:29:26.328Z,9.65
2022-10-13T20:31:54.163Z,10.70
2022-10-13T20:34:30.052Z,9.10
2022-10-13T20:36:58.095Z,9.85
2022-10-13T20:39:34.475Z,10.05
2022-10-13T20:42:04.893Z,10.93
2022-10-13T20:44:35.312Z,9.82
2022-10-13T20:47:07.627Z,9.18
2022-10-13T20:49:41.028Z,10.68
2022-10-13T20:52:09.679Z,9.27
2022-10-13T20:54:42.826Z,8.88
2022-10-13T20:57:10.795Z,8.13
2022-10-13T20:59:44.321Z,9.57
2022-10-13T21:04:40.861Z,11.57
2022-10-13T21:07:12.198Z,10.38
2022-10-13T21:09:43.502Z,9.85
2022-10-13T21:12:11.127Z,9.48
2022-10-13T21:14:47.019Z,9.75
2022-10-13T21:17:15.666Z,9.30
2022-10-13T21:19:47.804Z,10.25
2022-10-13T21:22:15.510Z,9.20
2022-10-13T21:24:48.669Z,9.60
2022-10-13T21:27:19.793Z,9.25
2022-10-13T21:29:50.590Z,9.45
2022-10-13T21:32:19.461Z,8.98
2022-10-13T21:34:50.899Z,9.40
2022-10-13T21:37:22.564Z,9.20
2022-10-13T21:39:53.632Z,10.50
2022-10-13T21:42:29.419Z,9.75
2022-10-13T21:45:00.094Z,9.88
2022-10-13T21:47:34.686Z,9.63
2022-10-13T21:50:05.434Z,10.15
2022-10-13T21:52:38.283Z,9.98
2022-10-13T21:55:06.345Z,9.07
2022-10-13T21:57:33.940Z,8.77
2022-10-13T22:00:06.544Z,9.18
2022-10-13T22:02:42.786Z,9.50
2022-10-13T22:05:12.950Z,10.27
2022-10-13T22:07:41.610Z,9.65
2022-10-13T22:10:09.572Z,8.95
2022-10-13T22:12:39.842Z,9.00
2022-10-13T22:15:11.592Z,9.30
2022-10-13T22:17:47.645Z,9.82
2022-10-13T22:20:15.532Z,9.63
2022-10-13T22:22:46.738Z,9.52
2022-10-13T22:25:19.591Z,9.52
2022-10-13T22:27:51.323Z,8.75
2022-10-13T22:30:24.182Z,9.38
2022-10-13T22:32:58.687Z,9.57
2022-10-13T22:35:31.969Z,8.93
2022-10-13T22:38:02.551Z,9.93
2022-10-13T22:40:35.648Z,9.48
2022-10-13T22:43:03.722Z,8.85
2022-10-13T22:45:34.054Z,10.15
2022-10-13T22:48:04.893Z,9.57
2022-10-13T22:50:40.309Z,9.90
2022-10-13T22:53:09.762Z,10.07
2022-10-13T22:55:41.652Z,9.15
2022-10-13T22:58:14.973Z,9.38
2022-10-13T23:00:42.711Z,8.85
2022-10-13T23:03:14.549Z,10.75
2022-10-13T23:05:48.533Z,8.75
2022-10-13T23:08:17.676Z,9.88
2022-10-13T23:10:48.344Z,9.20
2022-10-13T23:13:20.553Z,8.65
2022-10-13T23:15:49.622Z,11.30
2022-10-13T23:18:22.156Z,8.45
2022-10-13T23:20:57.032Z,9.02
2022-10-13T23:23:32.467Z,10.15
2022-10-13T23:28:40.815Z,10.98
2022-10-13T23:31:17.545Z,9.65
2022-10-13T23:33:50.644Z,9.88
2022-10-13T23:36:27.355Z,9.38
2022-10-13T23:39:04.955Z,9.60
2022-10-13T23:41:35.494Z,9.13
2022-10-13T23:44:09.246Z,7.25
2022-10-13T23:46:40.091Z,9.23
2022-10-13T23:49:12.986Z,8.82
2022-10-13T23:51:45.822Z,10.43
2022-10-13T23:54:16.384Z,9.77
2022-10-13T23:56:46.336Z,8.52
2022-10-13T23:59:19.841Z,9.80
